createdAt,value
2016-05-09T00:00:08.589Z,16.88
2016-05-09T00:00:18.590Z,16.89
2016-05-09T00:00:28.590Z,16.86
2016-05-09T00:00:38.590Z,16.91
2016-05-09T00:00:48.606Z,16.83
2016-05-09T00:00:58.606Z,16.86
2016-05-09T00:01:08.622Z,16.97
2016-05-09T00:01:18.625Z,16.88
2016-05-09T00:01:28.625Z,16.88
2016-05-09T00:01:38.640Z,16.88
2016-05-09T00:01:48.640Z,16.89
2016-05-09T00:01:58.640Z,16.96
2016-05-09T00:02:08.656Z,16.93
2016-05-09T00:02:18.660Z,16.89
2016-05-09T00:02:28.675Z,16.97
2016-05-09T00:02:38.675Z,16.96
2016-05-09T00:02:48.691Z,16.89
2016-05-09T00:02:58.675Z,16.96
2016-05-09T00:03:08.691Z,16.91
2016-05-09T00:03:18.693Z,16.88
2016-05-09T00:03:28.693Z,16.93
2016-05-09T00:03:38.709Z,16.91
2016-05-09T00:03:48.709Z,16.88
2016-05-09T00:03:58.709Z,16.89
2016-05-09T00:04:08.709Z,16.88
2016-05-09T00:04:18.727Z,16.93
2016-05-09T00:04:28.727Z,16.88
2016-05-09T00:04:38.743Z,16.94
2016-05-09T00:04:48.743Z,16.94
2016-05-09T00:04:58.759Z,16.88
2016-05-09T00:05:08.759Z,16.88
2016-05-09T00:05:18.761Z,16.88
2016-05-09T00:05:28.776Z,16.93
2016-05-09T00:05:38.776Z,16.89
2016-05-09T00:05:48.776Z,16.91
2016-05-09T00:05:58.776Z,16.94
2016-05-09T00:06:08.792Z,16.89
2016-05-09T00:06:18.654Z,16.91
2016-05-09T00:06:28.810Z,16.91
2016-05-09T00:06:38.810Z,16.88
2016-05-09T00:06:48.810Z,16.89
2016-05-09T00:06:58.810Z,16.93
2016-05-09T00:07:08.670Z,16.88
2016-05-09T00:07:18.829Z,16.93
2016-05-09T00:07:28.829Z,16.93
2016-05-09T00:07:38.845Z,16.89
2016-05-09T00:07:48.845Z,16.94
2016-05-09T00:07:58.845Z,16.89
2016-05-09T00:08:08.704Z,16.89
2016-05-09T00:08:18.707Z,16.93
2016-05-09T00:08:28.863Z,16.85
2016-05-09T00:08:38.879Z,16.94
2016-05-09T00:08:48.879Z,16.94
2016-05-09T00:08:58.895Z,16.89
2016-05-09T00:09:08.895Z,16.91
2016-05-09T00:09:18.897Z,16.94
2016-05-09T00:09:28.912Z,16.82
2016-05-09T00:09:38.912Z,16.94
2016-05-09T00:09:48.772Z,16.96
2016-05-09T00:09:58.912Z,16.81
2016-05-09T00:10:08.928Z,16.94
2016-05-09T00:10:18.931Z,16.89
2016-05-09T00:10:28.946Z,16.94
2016-05-09T00:10:38.790Z,16.91
2016-05-09T00:10:48.962Z,16.81
2016-05-09T00:10:58.790Z,16.86
2016-05-09T00:11:08.806Z,16.93
2016-05-09T00:11:18.980Z,16.85
2016-05-09T00:11:28.980Z,16.89
2016-05-09T00:11:38.980Z,16.89
2016-05-09T00:11:48.995Z,16.94
2016-05-09T00:11:58.995Z,16.89
2016-05-09T00:12:08.995Z,16.94
2016-05-09T00:12:18.998Z,16.86
2016-05-09T00:12:29.014Z,16.82
2016-05-09T00:12:38.858Z,16.83
2016-05-09T00:12:49.014Z,16.88
2016-05-09T00:12:59.030Z,16.88
2016-05-09T00:13:09.030Z,16.97
2016-05-09T00:13:18.876Z,16.88
2016-05-09T00:13:29.048Z,16.89
2016-05-09T00:13:39.048Z,16.93
2016-05-09T00:13:49.048Z,16.88
2016-05-09T00:13:59.329Z,16.89
2016-05-09T00:14:08.923Z,16.81
2016-05-09T00:14:19.067Z,16.94
2016-05-09T00:14:29.082Z,16.88
2016-05-09T00:14:38.926Z,16.89
2016-05-09T00:14:49.082Z,16.91
2016-05-09T00:14:59.098Z,16.97
2016-05-09T00:15:09.114Z,16.93
2016-05-09T00:15:19.116Z,16.91
2016-05-09T00:15:28.959Z,16.97
2016-05-09T00:15:39.131Z,16.89
2016-05-09T00:15:49.116Z,16.93
2016-05-09T00:15:59.131Z,16.91
2016-05-09T00:16:09.163Z,16.89
2016-05-09T00:16:19.134Z,16.93
2016-05-09T00:16:29.150Z,16.88
2016-05-09T00:16:39.150Z,16.85
2016-05-09T00:16:49.166Z,16.96
2016-05-09T00:16:59.166Z,16.93
2016-05-09T00:17:09.166Z,16.88
2016-05-09T00:17:19.168Z,16.88
2016-05-09T00:17:29.183Z,16.93
2016-05-09T00:17:39.183Z,16.91
2016-05-09T00:17:49.199Z,16.93
2016-05-09T00:17:59.199Z,16.94
2016-05-09T00:18:09.214Z,16.83
2016-05-09T00:18:19.217Z,16.88
2016-05-09T00:18:29.217Z,16.91
2016-05-09T00:18:39.217Z,16.93
2016-05-09T00:18:49.233Z,16.93
2016-05-09T00:18:59.233Z,16.94
2016-05-09T00:19:09.233Z,16.88
2016-05-09T00:19:19.252Z,16.93
2016-05-09T00:19:29.267Z,16.89
2016-05-09T00:19:39.267Z,16.88
2016-05-09T00:19:49.267Z,16.97
2016-05-09T00:19:59.283Z,16.93
2016-05-09T00:20:09.283Z,16.93
2016-05-09T00:20:19.286Z,16.91
2016-05-09T00:20:29.286Z,16.94
2016-05-09T00:20:39.302Z,16.96
2016-05-09T00:20:49.302Z,16.89
2016-05-09T00:20:59.302Z,16.93
2016-05-09T00:21:09.317Z,16.88
2016-05-09T00:21:19.320Z,16.85
2016-05-09T00:21:29.320Z,16.93
2016-05-09T00:21:39.320Z,16.89
2016-05-09T00:21:49.336Z,16.93
2016-05-09T00:21:59.336Z,16.88
2016-05-09T00:22:09.336Z,16.88
2016-05-09T00:22:19.353Z,16.88
2016-05-09T00:22:29.353Z,16.91
2016-05-09T00:22:39.353Z,16.89
2016-05-09T00:22:49.369Z,16.88
2016-05-09T00:22:59.369Z,16.91
2016-05-09T00:23:09.369Z,16.89
2016-05-09T00:23:19.231Z,16.91
2016-05-09T00:23:29.388Z,16.86
2016-05-09T00:23:39.388Z,16.91
2016-05-09T00:23:49.403Z,16.89
2016-05-09T00:23:59.403Z,16.94
2016-05-09T00:24:09.403Z,16.93
2016-05-09T00:24:19.421Z,16.89
2016-05-09T00:24:29.421Z,16.91
2016-05-09T00:24:39.437Z,16.89
2016-05-09T00:24:49.437Z,16.88
2016-05-09T00:24:59.437Z,16.94
2016-05-09T00:25:09.437Z,16.91
2016-05-09T00:25:19.455Z,16.97
2016-05-09T00:25:29.299Z,16.94
2016-05-09T00:25:39.455Z,16.88
2016-05-09T00:25:49.455Z,16.91
2016-05-09T00:25:59.471Z,16.93
2016-05-09T00:26:09.471Z,16.91
2016-05-09T00:26:19.488Z,16.88
2016-05-09T00:26:29.488Z,16.89
2016-05-09T00:26:39.488Z,16.89
2016-05-09T00:26:49.504Z,16.88
2016-05-09T00:26:59.504Z,16.88
2016-05-09T00:27:09.520Z,16.93
2016-05-09T00:27:19.539Z,16.91
2016-05-09T00:27:29.524Z,16.88
2016-05-09T00:27:39.524Z,16.93
2016-05-09T00:27:49.539Z,16.88
2016-05-09T00:27:59.399Z,16.96
2016-05-09T00:28:09.555Z,16.91
2016-05-09T00:28:19.401Z,16.91
2016-05-09T00:28:29.573Z,16.83
2016-05-09T00:28:39.901Z,16.91
2016-05-09T00:28:49.588Z,16.89
2016-05-09T00:28:59.573Z,16.88
2016-05-09T00:29:09.744Z,16.97
2016-05-09T00:29:19.654Z,16.91
2016-05-09T00:29:29.638Z,16.96
2016-05-09T00:29:39.591Z,16.86
2016-05-09T00:29:49.607Z,16.91
2016-05-09T00:29:59.607Z,16.93
2016-05-09T00:30:09.607Z,16.97
2016-05-09T00:30:19.469Z,16.91
2016-05-09T00:30:29.625Z,16.88
2016-05-09T00:30:39.641Z,16.94
2016-05-09T00:30:49.641Z,16.85
2016-05-09T00:30:59.641Z,16.78
2016-05-09T00:31:09.657Z,16.93
2016-05-09T00:31:19.659Z,16.83
2016-05-09T00:31:29.659Z,16.96
2016-05-09T00:31:39.659Z,16.75
2016-05-09T00:31:49.674Z,16.82
2016-05-09T00:31:59.674Z,16.83
2016-05-09T00:32:09.690Z,16.78
2016-05-09T00:32:19.693Z,16.97
2016-05-09T00:32:29.693Z,16.81
2016-05-09T00:32:39.724Z,16.78
2016-05-09T00:32:49.709Z,16.85
2016-05-09T00:32:59.552Z,16.82
2016-05-09T00:33:09.568Z,16.89
2016-05-09T00:33:19.727Z,16.93
2016-05-09T00:33:29.727Z,16.76
2016-05-09T00:33:39.743Z,16.81
2016-05-09T00:33:49.743Z,16.82
2016-05-09T00:33:59.602Z,16.89
2016-05-09T00:34:09.758Z,16.83
2016-05-09T00:34:19.760Z,16.75
2016-05-09T00:34:29.760Z,16.78
2016-05-09T00:34:39.776Z,16.73
2016-05-09T00:34:49.776Z,16.79
2016-05-09T00:34:59.776Z,16.78
2016-05-09T00:35:09.792Z,16.79
2016-05-09T00:35:19.795Z,16.91
2016-05-09T00:35:29.810Z,16.79
2016-05-09T00:35:39.810Z,16.76
2016-05-09T00:35:49.654Z,16.73
2016-05-09T00:35:59.810Z,16.76
2016-05-09T00:36:09.826Z,16.82
2016-05-09T00:36:19.829Z,16.79
2016-05-09T00:36:29.845Z,16.78
2016-05-09T00:36:39.845Z,16.78
2016-05-09T00:36:49.688Z,16.83
2016-05-09T00:36:59.860Z,16.88
2016-05-09T00:37:09.845Z,16.76
2016-05-09T00:37:19.862Z,16.76
2016-05-09T00:37:29.862Z,16.89
2016-05-09T00:37:39.878Z,16.83
2016-05-09T00:37:50.097Z,16.81
2016-05-09T00:37:59.878Z,16.81
2016-05-09T00:38:09.893Z,16.76
2016-05-09T00:38:19.896Z,16.78
2016-05-09T00:38:29.896Z,16.76
2016-05-09T00:38:39.912Z,16.78
2016-05-09T00:38:49.756Z,16.85
2016-05-09T00:38:59.928Z,16.82
2016-05-09T00:39:09.928Z,16.79
2016-05-09T00:39:19.931Z,16.79
2016-05-09T00:39:29.946Z,16.78
2016-05-09T00:39:39.946Z,16.79
2016-05-09T00:39:49.946Z,16.83
2016-05-09T00:39:59.962Z,16.76
2016-05-09T00:40:09.962Z,16.82
2016-05-09T00:40:19.965Z,16.76
2016-05-09T00:40:29.981Z,16.79
2016-05-09T00:40:39.981Z,16.78
2016-05-09T00:40:49.981Z,16.78
2016-05-09T00:40:59.996Z,16.82
2016-05-09T00:41:09.996Z,16.75
2016-05-09T00:41:19.998Z,16.81
2016-05-09T00:41:29.998Z,16.83
2016-05-09T00:41:40.014Z,16.76
2016-05-09T00:41:50.014Z,16.81
2016-05-09T00:42:00.029Z,16.73
2016-05-09T00:42:10.029Z,16.81
2016-05-09T00:42:20.142Z,16.83
2016-05-09T00:42:30.048Z,16.83
2016-05-09T00:42:40.095Z,16.83
2016-05-09T00:42:50.048Z,16.78
2016-05-09T00:43:00.064Z,16.85
2016-05-09T00:43:09.907Z,16.82
2016-05-09T00:43:20.067Z,16.81
2016-05-09T00:43:30.348Z,16.75
2016-05-09T00:43:40.082Z,16.79
2016-05-09T00:43:50.551Z,16.82
2016-05-09T00:44:00.379Z,16.81
2016-05-09T00:44:10.254Z,16.79
2016-05-09T00:44:20.101Z,16.78
2016-05-09T00:44:29.960Z,16.73
2016-05-09T00:44:39.960Z,16.81
2016-05-09T00:44:50.132Z,16.78
2016-05-09T00:45:00.132Z,16.81
2016-05-09T00:45:10.132Z,16.82
2016-05-09T00:45:20.133Z,16.79
2016-05-09T00:45:30.008Z,16.83
2016-05-09T00:45:40.727Z,16.86
2016-05-09T00:45:50.149Z,16.82
2016-05-09T00:46:00.164Z,16.76
2016-05-09T00:46:10.164Z,16.86
2016-05-09T00:46:20.168Z,16.83
2016-05-09T00:46:30.184Z,16.78
2016-05-09T00:46:40.184Z,16.73
2016-05-09T00:46:50.200Z,16.82
2016-05-09T00:47:00.200Z,16.75
2016-05-09T00:47:10.200Z,16.82
2016-05-09T00:47:20.202Z,16.79
2016-05-09T00:47:30.217Z,16.82
2016-05-09T00:47:40.217Z,16.82
2016-05-09T00:47:50.233Z,16.76
2016-05-09T00:48:00.233Z,16.73
2016-05-09T00:48:10.233Z,16.76
2016-05-09T00:48:20.236Z,16.82
2016-05-09T00:48:30.252Z,16.86
2016-05-09T00:48:40.095Z,16.78
2016-05-09T00:48:50.252Z,16.85
2016-05-09T00:49:00.267Z,16.76
2016-05-09T00:49:10.267Z,16.79
2016-05-09T00:49:20.285Z,16.78
2016-05-09T00:49:30.144Z,16.79
2016-05-09T00:49:40.129Z,16.82
2016-05-09T00:49:50.285Z,16.78
2016-05-09T00:50:00.285Z,16.82
2016-05-09T00:50:10.316Z,16.73
2016-05-09T00:50:20.304Z,16.81
2016-05-09T00:50:30.164Z,16.78
2016-05-09T00:50:40.336Z,16.78
2016-05-09T00:50:50.179Z,16.76
2016-05-09T00:51:00.179Z,16.76
2016-05-09T00:51:10.336Z,16.81
2016-05-09T00:51:20.353Z,16.81
2016-05-09T00:51:30.353Z,16.78
2016-05-09T00:51:40.353Z,16.85
2016-05-09T00:51:50.353Z,16.81
2016-05-09T00:52:00.369Z,16.79
2016-05-09T00:52:10.369Z,16.81
2016-05-09T00:52:20.388Z,16.79
2016-05-09T00:52:30.388Z,16.76
2016-05-09T00:52:40.388Z,16.83
2016-05-09T00:52:50.403Z,16.79
2016-05-09T00:53:00.403Z,16.82
2016-05-09T00:53:10.419Z,16.83
2016-05-09T00:53:20.421Z,16.81
2016-05-09T00:53:30.421Z,16.76
2016-05-09T00:53:40.421Z,16.81
2016-05-09T00:53:50.436Z,16.86
2016-05-09T00:54:00.436Z,16.85
2016-05-09T00:54:10.452Z,16.81
2016-05-09T00:54:20.439Z,16.85
2016-05-09T00:54:30.455Z,16.83
2016-05-09T00:54:40.455Z,16.79
2016-05-09T00:54:50.471Z,16.88
2016-05-09T00:55:00.471Z,16.75
2016-05-09T00:55:10.471Z,16.79
2016-05-09T00:55:20.474Z,16.82
2016-05-09T00:55:30.489Z,16.79
2016-05-09T00:55:40.489Z,16.76
2016-05-09T00:55:50.505Z,16.88
2016-05-09T00:56:00.505Z,16.79
2016-05-09T00:56:10.505Z,16.75
2016-05-09T00:56:20.366Z,16.76
2016-05-09T00:56:30.523Z,16.76
2016-05-09T00:56:40.523Z,16.85
2016-05-09T00:56:50.382Z,16.85
2016-05-09T00:57:00.538Z,16.85
2016-05-09T00:57:10.538Z,16.76
2016-05-09T00:57:20.557Z,16.81
2016-05-09T00:57:30.572Z,16.82
2016-05-09T00:57:40.557Z,16.75
2016-05-09T00:57:50.572Z,16.82
2016-05-09T00:58:00.572Z,16.85
2016-05-09T00:58:10.572Z,16.81
2016-05-09T00:58:20.591Z,16.78
2016-05-09T00:58:30.591Z,16.85
2016-05-09T00:58:40.700Z,16.76
2016-05-09T00:58:50.810Z,16.76
2016-05-09T00:59:00.450Z,16.75
2016-05-09T00:59:10.638Z,16.75
2016-05-09T00:59:20.469Z,16.86
2016-05-09T00:59:30.625Z,16.76
2016-05-09T00:59:40.625Z,16.7
2016-05-09T00:59:50.641Z,16.75
2016-05-09T01:00:00.641Z,16.73
2016-05-09T01:00:10.657Z,16.75
2016-05-09T01:00:20.659Z,16.76
2016-05-09T01:00:30.659Z,16.81
2016-05-09T01:00:40.518Z,16.71
2016-05-09T01:00:50.518Z,16.79
2016-05-09T01:01:00.674Z,16.78
2016-05-09T01:01:10.674Z,16.7
2016-05-09T01:01:20.537Z,16.81
2016-05-09T01:01:30.693Z,16.78
2016-05-09T01:01:40.693Z,16.75
2016-05-09T01:01:50.708Z,16.81
2016-05-09T01:02:00.552Z,16.76
2016-05-09T01:02:10.724Z,16.76
2016-05-09T01:02:20.727Z,16.75
2016-05-09T01:02:30.727Z,16.81
2016-05-09T01:02:40.743Z,16.81
2016-05-09T01:02:50.743Z,16.81
2016-05-09T01:03:00.743Z,16.71
2016-05-09T01:03:10.743Z,16.7
2016-05-09T01:03:20.604Z,16.75
2016-05-09T01:03:30.776Z,16.75
2016-05-09T01:03:40.776Z,16.67
2016-05-09T01:03:50.776Z,16.73
2016-05-09T01:04:00.776Z,16.75
2016-05-09T01:04:10.776Z,16.79
2016-05-09T01:04:20.795Z,16.73
2016-05-09T01:04:30.795Z,16.73
2016-05-09T01:04:40.795Z,16.76
2016-05-09T01:04:50.810Z,16.76
2016-05-09T01:05:00.826Z,16.78
2016-05-09T01:05:10.826Z,16.76
2016-05-09T01:05:20.829Z,16.76
2016-05-09T01:05:30.829Z,16.81
2016-05-09T01:05:40.829Z,16.81
2016-05-09T01:05:50.844Z,16.81
2016-05-09T01:06:00.688Z,16.83
2016-05-09T01:06:10.860Z,16.79
2016-05-09T01:06:20.893Z,16.76
2016-05-09T01:06:30.862Z,16.76
2016-05-09T01:06:40.878Z,16.79
2016-05-09T01:06:50.878Z,16.85
2016-05-09T01:07:00.878Z,16.76
2016-05-09T01:07:10.893Z,16.75
2016-05-09T01:07:20.896Z,16.76
2016-05-09T01:07:30.912Z,16.78
2016-05-09T01:07:40.912Z,16.76
2016-05-09T01:07:50.912Z,16.83
2016-05-09T01:08:00.912Z,16.83
2016-05-09T01:08:10.771Z,16.75
2016-05-09T01:08:20.773Z,16.83
2016-05-09T01:08:30.930Z,16.78
2016-05-09T01:08:40.945Z,16.73
2016-05-09T01:08:50.945Z,16.76
2016-05-09T01:09:00.961Z,16.81
2016-05-09T01:09:10.961Z,16.76
2016-05-09T01:09:20.965Z,16.81
2016-05-09T01:09:30.809Z,16.73
2016-05-09T01:09:40.980Z,16.81
2016-05-09T01:09:50.980Z,16.76
2016-05-09T01:10:00.996Z,16.75
2016-05-09T01:10:10.996Z,16.78
2016-05-09T01:10:21.015Z,16.78
2016-05-09T01:10:30.843Z,16.88
2016-05-09T01:10:40.999Z,16.81
2016-05-09T01:10:51.015Z,16.76
2016-05-09T01:11:00.858Z,16.76
2016-05-09T01:11:11.030Z,16.75
2016-05-09T01:11:21.032Z,16.75
2016-05-09T01:11:31.048Z,16.73
2016-05-09T01:11:41.048Z,16.81
2016-05-09T01:11:51.048Z,16.76
2016-05-09T01:12:01.048Z,16.79
2016-05-09T01:12:10.907Z,16.76
2016-05-09T01:12:21.066Z,16.66
2016-05-09T01:12:31.066Z,16.76
2016-05-09T01:12:41.081Z,16.76
2016-05-09T01:12:51.097Z,16.68
2016-05-09T01:13:01.081Z,16.79
2016-05-09T01:13:11.112Z,16.73
2016-05-09T01:13:21.100Z,16.76
2016-05-09T01:13:31.100Z,16.7
2016-05-09T01:13:41.131Z,16.76
2016-05-09T01:13:51.319Z,16.7
2016-05-09T01:14:00.990Z,16.7
2016-05-09T01:14:11.131Z,16.79
2016-05-09T01:14:21.555Z,16.76
2016-05-09T01:14:31.133Z,16.75
2016-05-09T01:14:40.992Z,16.75
2016-05-09T01:14:51.149Z,16.73
2016-05-09T01:15:01.149Z,16.79
2016-05-09T01:15:11.164Z,16.76
2016-05-09T01:15:21.168Z,16.75
2016-05-09T01:15:31.184Z,16.7
2016-05-09T01:15:41.200Z,16.66
2016-05-09T01:15:51.184Z,16.71
2016-05-09T01:16:01.184Z,16.78
2016-05-09T01:16:11.200Z,16.67
2016-05-09T01:16:21.203Z,16.73
2016-05-09T01:16:31.203Z,16.76
2016-05-09T01:16:41.062Z,16.73
2016-05-09T01:16:51.218Z,16.73
2016-05-09T01:17:01.218Z,16.66
2016-05-09T01:17:11.234Z,16.66
2016-05-09T01:17:21.236Z,16.76
2016-05-09T01:17:31.251Z,16.7
2016-05-09T01:17:41.251Z,16.76
2016-05-09T01:17:51.251Z,16.76
2016-05-09T01:18:01.251Z,16.66
2016-05-09T01:18:11.251Z,16.68
2016-05-09T01:18:21.270Z,16.63
2016-05-09T01:18:31.270Z,16.64
2016-05-09T01:18:41.286Z,16.75
2016-05-09T01:18:51.286Z,16.61
2016-05-09T01:19:01.286Z,16.61
2016-05-09T01:19:11.301Z,16.71
2016-05-09T01:19:21.147Z,16.68
2016-05-09T01:19:31.303Z,16.67
2016-05-09T01:19:41.163Z,16.71
2016-05-09T01:19:51.163Z,16.66
2016-05-09T01:20:01.319Z,16.64
2016-05-09T01:20:11.335Z,16.67
2016-05-09T01:20:21.338Z,16.63
2016-05-09T01:20:31.353Z,16.67
2016-05-09T01:20:41.353Z,16.63
2016-05-09T01:20:51.353Z,16.67
2016-05-09T01:21:01.353Z,16.66
2016-05-09T01:21:11.369Z,16.64
2016-05-09T01:21:21.371Z,16.66
2016-05-09T01:21:31.386Z,16.68
2016-05-09T01:21:41.386Z,16.66
2016-05-09T01:21:51.246Z,16.64
2016-05-09T01:22:01.386Z,16.73
2016-05-09T01:22:11.402Z,16.63
2016-05-09T01:22:21.422Z,16.68
2016-05-09T01:22:31.265Z,16.63
2016-05-09T01:22:41.422Z,16.7
2016-05-09T01:22:51.437Z,16.67
2016-05-09T01:23:01.437Z,16.58
2016-05-09T01:23:11.437Z,16.67
2016-05-09T01:23:21.439Z,16.64
2016-05-09T01:23:31.455Z,16.67
2016-05-09T01:23:41.455Z,16.67
2016-05-09T01:23:51.455Z,16.68
2016-05-09T01:24:01.471Z,16.63
2016-05-09T01:24:11.486Z,16.61
2016-05-09T01:24:21.520Z,16.67
2016-05-09T01:24:31.333Z,16.63
2016-05-09T01:24:41.489Z,16.64
2016-05-09T01:24:51.489Z,16.63
2016-05-09T01:25:01.505Z,16.6
2016-05-09T01:25:11.505Z,16.68
2016-05-09T01:25:21.507Z,16.64
2016-05-09T01:25:31.522Z,16.64
2016-05-09T01:25:41.522Z,16.68
2016-05-09T01:25:51.522Z,16.67
2016-05-09T01:26:01.538Z,16.57
2016-05-09T01:26:11.538Z,16.61
2016-05-09T01:26:21.541Z,16.63
2016-05-09T01:26:31.557Z,16.61
2016-05-09T01:26:41.557Z,16.63
2016-05-09T01:26:51.557Z,16.61
2016-05-09T01:27:01.572Z,16.67
2016-05-09T01:27:11.572Z,16.61
2016-05-09T01:27:21.575Z,16.63
2016-05-09T01:27:31.575Z,16.64
2016-05-09T01:27:41.591Z,16.63
2016-05-09T01:27:51.435Z,16.6
2016-05-09T01:28:01.653Z,16.6
2016-05-09T01:28:11.607Z,16.67
2016-05-09T01:28:21.610Z,16.64
2016-05-09T01:28:31.625Z,16.63
2016-05-09T01:28:41.469Z,16.66
2016-05-09T01:28:51.641Z,16.67
2016-05-09T01:29:01.781Z,16.64
2016-05-09T01:29:11.641Z,16.6
2016-05-09T01:29:21.502Z,16.64
2016-05-09T01:29:31.940Z,16.56
2016-05-09T01:29:41.502Z,16.58
2016-05-09T01:29:51.658Z,16.6
2016-05-09T01:30:01.674Z,16.63
2016-05-09T01:30:11.690Z,16.56
2016-05-09T01:30:21.693Z,16.61
2016-05-09T01:30:31.693Z,16.64
2016-05-09T01:30:41.693Z,16.56
2016-05-09T01:30:51.693Z,16.66
2016-05-09T01:31:01.708Z,16.58
2016-05-09T01:31:11.552Z,16.58
2016-05-09T01:31:21.710Z,16.63
2016-05-09T01:31:31.726Z,16.6
2016-05-09T01:31:41.726Z,16.58
2016-05-09T01:31:51.742Z,16.6
2016-05-09T01:32:01.742Z,16.56
2016-05-09T01:32:11.742Z,16.56
2016-05-09T01:32:21.604Z,16.56
2016-05-09T01:32:31.760Z,16.57
2016-05-09T01:32:41.760Z,16.57
2016-05-09T01:32:51.760Z,16.53
2016-05-09T01:33:01.760Z,16.57
2016-05-09T01:33:11.779Z,16.53
2016-05-09T01:33:21.794Z,16.57
2016-05-09T01:33:31.794Z,16.57
2016-05-09T01:33:41.794Z,16.63
2016-05-09T01:33:51.810Z,16.61
2016-05-09T01:34:01.810Z,16.56
2016-05-09T01:34:11.829Z,16.52
2016-05-09T01:34:21.813Z,16.58
2016-05-09T01:34:31.829Z,16.56
2016-05-09T01:34:41.829Z,16.58
2016-05-09T01:34:51.688Z,16.53
2016-05-09T01:35:01.844Z,16.57
2016-05-09T01:35:11.846Z,16.49
2016-05-09T01:35:21.862Z,16.57
2016-05-09T01:35:31.862Z,16.52
2016-05-09T01:35:41.862Z,16.56
2016-05-09T01:35:51.878Z,16.5
2016-05-09T01:36:01.878Z,16.57
2016-05-09T01:36:11.881Z,16.49
2016-05-09T01:36:21.881Z,16.53
2016-05-09T01:36:31.896Z,16.49
2016-05-09T01:36:41.740Z,16.49
2016-05-09T01:36:51.912Z,16.57
2016-05-09T01:37:01.912Z,16.52
2016-05-09T01:37:11.914Z,16.57
2016-05-09T01:37:21.914Z,16.5
2016-05-09T01:37:31.929Z,16.56
2016-05-09T01:37:41.929Z,16.56
2016-05-09T01:37:51.945Z,16.5
2016-05-09T01:38:01.945Z,16.48
2016-05-09T01:38:11.949Z,16.52
2016-05-09T01:38:21.965Z,16.56
2016-05-09T01:38:31.965Z,16.49
2016-05-09T01:38:41.965Z,16.56
2016-05-09T01:38:51.824Z,16.45
2016-05-09T01:39:01.980Z,16.48
2016-05-09T01:39:11.824Z,16.45
2016-05-09T01:39:21.999Z,16.42
2016-05-09T01:39:31.999Z,16.49
2016-05-09T01:39:42.015Z,16.46
2016-05-09T01:39:51.999Z,16.48
2016-05-09T01:40:02.015Z,16.43
2016-05-09T01:40:12.017Z,16.45
2016-05-09T01:40:21.876Z,16.35
2016-05-09T01:40:32.032Z,16.45
2016-05-09T01:40:41.876Z,16.52
2016-05-09T01:40:52.048Z,16.43
2016-05-09T01:41:02.048Z,16.39
2016-05-09T01:41:12.051Z,16.38
2016-05-09T01:41:21.910Z,16.43
2016-05-09T01:41:32.066Z,16.35
2016-05-09T01:41:42.066Z,16.38
2016-05-09T01:41:52.082Z,16.43
2016-05-09T01:42:01.941Z,16.41
2016-05-09T01:42:12.084Z,16.42
2016-05-09T01:42:22.084Z,16.39
2016-05-09T01:42:32.100Z,16.45
2016-05-09T01:42:42.100Z,16.41
2016-05-09T01:42:52.100Z,16.46
2016-05-09T01:43:02.115Z,16.45
2016-05-09T01:43:11.959Z,16.43
2016-05-09T01:43:22.117Z,16.41
2016-05-09T01:43:32.133Z,16.45
2016-05-09T01:43:42.133Z,16.35
2016-05-09T01:43:51.992Z,16.38
2016-05-09T01:44:03.070Z,16.42
2016-05-09T01:44:12.762Z,16.42
2016-05-09T01:44:22.184Z,16.46
2016-05-09T01:44:32.168Z,16.43
2016-05-09T01:44:42.168Z,16.42
2016-05-09T01:44:52.184Z,16.43
2016-05-09T01:45:02.184Z,16.43
2016-05-09T01:45:12.186Z,16.38
2016-05-09T01:45:22.186Z,16.38
2016-05-09T01:45:32.201Z,16.35
2016-05-09T01:45:42.201Z,16.39
2016-05-09T01:45:52.217Z,16.35
2016-05-09T01:46:02.217Z,16.39
2016-05-09T01:46:12.236Z,16.31
2016-05-09T01:46:22.236Z,16.31
2016-05-09T01:46:32.236Z,16.38
2016-05-09T01:46:42.236Z,16.33
2016-05-09T01:46:52.251Z,16.38
2016-05-09T01:47:02.251Z,16.39
2016-05-09T01:47:12.254Z,16.43
2016-05-09T01:47:22.114Z,16.31
2016-05-09T01:47:32.270Z,16.31
2016-05-09T01:47:42.286Z,16.41
2016-05-09T01:47:52.286Z,16.34
2016-05-09T01:48:02.286Z,16.33
2016-05-09T01:48:12.288Z,16.31
2016-05-09T01:48:22.303Z,16.34
2016-05-09T01:48:32.303Z,16.27
2016-05-09T01:48:42.303Z,16.27
2016-05-09T01:48:52.319Z,16.28
2016-05-09T01:49:02.319Z,16.31
2016-05-09T01:49:12.322Z,16.39
2016-05-09T01:49:22.337Z,16.27
2016-05-09T01:49:32.337Z,16.27
2016-05-09T01:49:42.337Z,16.3
2016-05-09T01:49:52.353Z,16.31
2016-05-09T01:50:02.353Z,16.27
2016-05-09T01:50:12.355Z,16.27
2016-05-09T01:50:22.371Z,16.23
2016-05-09T01:50:32.371Z,16.25
2016-05-09T01:50:42.371Z,16.38
2016-05-09T01:50:52.386Z,16.3
2016-05-09T01:51:02.402Z,16.35
2016-05-09T01:51:12.406Z,16.3
2016-05-09T01:51:22.406Z,16.27
2016-05-09T01:51:32.422Z,16.38
2016-05-09T01:51:42.406Z,16.33
2016-05-09T01:51:52.422Z,16.28
2016-05-09T01:52:02.265Z,16.33
2016-05-09T01:52:12.439Z,16.34
2016-05-09T01:52:22.439Z,16.23
2016-05-09T01:52:32.439Z,16.27
2016-05-09T01:52:42.299Z,16.23
2016-05-09T01:52:52.470Z,16.33
2016-05-09T01:53:02.455Z,16.38
2016-05-09T01:53:12.473Z,16.3
2016-05-09T01:53:22.473Z,16.27
2016-05-09T01:53:32.473Z,16.28
2016-05-09T01:53:42.473Z,16.31
2016-05-09T01:53:52.489Z,16.38
2016-05-09T01:54:02.489Z,16.35
2016-05-09T01:54:12.491Z,16.3
2016-05-09T01:54:22.507Z,16.33
2016-05-09T01:54:32.507Z,16.34
2016-05-09T01:54:42.522Z,16.33
2016-05-09T01:54:52.522Z,16.33
2016-05-09T01:55:02.522Z,16.3
2016-05-09T01:55:12.525Z,16.28
2016-05-09T01:55:22.541Z,16.21
2016-05-09T01:55:32.541Z,16.31
2016-05-09T01:55:42.541Z,16.28
2016-05-09T01:55:52.557Z,16.34
2016-05-09T01:56:02.557Z,16.33
2016-05-09T01:56:12.575Z,16.28
2016-05-09T01:56:22.575Z,16.34
2016-05-09T01:56:32.575Z,16.34
2016-05-09T01:56:42.575Z,16.34
2016-05-09T01:56:52.606Z,16.3
2016-05-09T01:57:02.591Z,16.33
2016-05-09T01:57:12.594Z,16.38
2016-05-09T01:57:22.609Z,16.3
2016-05-09T01:57:32.625Z,16.28
2016-05-09T01:57:42.625Z,16.27
2016-05-09T01:57:52.625Z,16.3
2016-05-09T01:58:02.625Z,16.27
2016-05-09T01:58:12.627Z,16.35
2016-05-09T01:58:22.643Z,16.34
2016-05-09T01:58:32.643Z,16.33
2016-05-09T01:58:42.908Z,16.3
2016-05-09T01:58:52.658Z,16.3
2016-05-09T01:59:02.658Z,16.25
2016-05-09T01:59:12.677Z,16.31
2016-05-09T01:59:22.677Z,16.25
2016-05-09T01:59:32.677Z,16.31
2016-05-09T01:59:42.693Z,16.28
2016-05-09T01:59:52.693Z,16.31
2016-05-09T02:00:02.693Z,16.34
2016-05-09T02:00:12.554Z,16.23
2016-05-09T02:00:22.710Z,16.33
2016-05-09T02:00:32.710Z,16.31
2016-05-09T02:00:42.710Z,16.35
2016-05-09T02:00:52.726Z,16.3
2016-05-09T02:01:02.726Z,16.33
2016-05-09T02:01:12.729Z,16.17
2016-05-09T02:01:22.744Z,16.31
2016-05-09T02:01:32.744Z,16.3
2016-05-09T02:01:42.760Z,16.27
2016-05-09T02:01:52.760Z,16.27
2016-05-09T02:02:02.760Z,16.28
2016-05-09T02:02:12.763Z,16.31
2016-05-09T02:02:22.779Z,16.27
2016-05-09T02:02:32.779Z,16.25
2016-05-09T02:02:42.779Z,16.24
2016-05-09T02:02:52.857Z,16.28
2016-05-09T02:03:02.872Z,16.27
2016-05-09T02:03:13.032Z,16.27
2016-05-09T02:03:22.922Z,16.24
2016-05-09T02:03:32.907Z,16.28
2016-05-09T02:03:42.907Z,16.25
2016-05-09T02:03:52.938Z,16.23
2016-05-09T02:04:02.954Z,16.27
2016-05-09T02:04:12.972Z,16.25
2016-05-09T02:04:22.941Z,16.27
2016-05-09T02:04:32.957Z,16.2
2016-05-09T02:04:42.988Z,16.2
2016-05-09T02:04:52.957Z,16.2
2016-05-09T02:05:02.972Z,16.2
2016-05-09T02:05:12.974Z,16.23
2016-05-09T02:05:22.974Z,16.09
2016-05-09T02:05:32.990Z,16.09
2016-05-09T02:05:43.005Z,16.09
2016-05-09T02:05:53.037Z,16.11
2016-05-09T02:06:02.974Z,16.23
2016-05-09T02:06:13.023Z,16.11
2016-05-09T02:06:23.023Z,16.09
2016-05-09T02:06:33.007Z,16.15
2016-05-09T02:06:42.867Z,16.15
2016-05-09T02:06:53.023Z,16.17
2016-05-09T02:07:03.023Z,16.11
2016-05-09T02:07:13.042Z,16.15
2016-05-09T02:07:22.964Z,16.23
2016-05-09T02:07:32.948Z,16.14
2016-05-09T02:07:42.964Z,16.2
2016-05-09T02:07:52.807Z,16.14
2016-05-09T02:08:02.964Z,16.15
2016-05-09T02:08:12.968Z,16.15
2016-05-09T02:08:22.983Z,16.11
2016-05-09T02:08:32.983Z,16.14
2016-05-09T02:08:42.999Z,16.15
2016-05-09T02:08:52.999Z,16.11
2016-05-09T02:09:02.999Z,16.14